createdAt,value
2023-05-16T00:01:30.625Z,100794.50
2023-05-16T00:03:58.440Z,100803.50
2023-05-16T00:06:26.710Z,100803.72
2023-05-16T00:08:54.336Z,100808.50
2023-05-16T00:11:22.210Z,100799.31
2023-05-16T00:13:51.584Z,100795.78
2023-05-16T00:16:21.587Z,100797.63
2023-05-16T00:18:50.116Z,100799.75
2023-05-16T00:21:18.043Z,100804.31
2023-05-16T00:23:45.636Z,100801.22
2023-05-16T00:26:13.299Z,100796.16
2023-05-16T00:28:40.962Z,100800.56
2023-05-16T00:31:09.950Z,100797.44
2023-05-16T00:33:37.567Z,100796.59
2023-05-16T00:36:06.282Z,100798.06
2023-05-16T00:38:34.018Z,100802.66
2023-05-16T00:41:01.702Z,100799.09
2023-05-16T00:43:29.736Z,100789.66
2023-05-16T00:45:58.196Z,100797.00
2023-05-16T00:48:27.632Z,100786.13
2023-05-16T00:50:55.459Z,100797.44
2023-05-16T00:53:24.229Z,100794.28
2023-05-16T00:55:52.504Z,100802.47
2023-05-16T00:58:20.584Z,100801.59
2023-05-16T01:00:48.886Z,100802.66
2023-05-16T01:03:17.194Z,100794.72
2023-05-16T01:05:47.290Z,100806.00
2023-05-16T01:08:15.069Z,100802.84
2023-05-16T01:10:51.077Z,100806.22
2023-05-16T01:13:25.696Z,100801.81
2023-05-16T01:16:01.353Z,100806.81
2023-05-16T01:18:35.578Z,100813.72
2023-05-16T01:21:13.518Z,100807.88
2023-05-16T01:23:52.470Z,100810.38
2023-05-16T01:26:26.626Z,100811.63
2023-05-16T01:28:55.683Z,100810.59
2023-05-16T01:31:24.776Z,100800.56
2023-05-16T01:33:52.548Z,100791.56
2023-05-16T01:36:26.282Z,100808.69
2023-05-16T01:39:08.569Z,100803.25
2023-05-16T01:41:48.614Z,100809.56
2023-05-16T01:44:23.010Z,100807.25
2023-05-16T01:46:56.211Z,100803.69
2023-05-16T01:49:28.235Z,100800.34
2023-05-16T01:52:01.787Z,100800.78
2023-05-16T01:54:33.636Z,100806.41
2023-05-16T01:57:06.009Z,100816.63
2023-05-16T01:59:34.903Z,100814.56
2023-05-16T02:02:03.566Z,100809.94
2023-05-16T02:04:31.346Z,100815.81
2023-05-16T02:07:00.449Z,100814.97
2023-05-16T02:09:28.204Z,100816.22
2023-05-16T02:11:56.016Z,100817.06
2023-05-16T02:14:25.803Z,100828.16
2023-05-16T02:16:53.693Z,100822.06
2023-05-16T02:19:21.477Z,100820.41
2023-05-16T02:21:49.482Z,100808.50
2023-05-16T02:24:17.182Z,100811.19
2023-05-16T02:26:44.860Z,100816.25
2023-05-16T02:29:12.532Z,100809.34
2023-05-16T02:31:42.744Z,100819.16
2023-05-16T02:34:10.858Z,100821.66
2023-05-16T02:36:38.518Z,100820.63
2023-05-16T02:39:07.619Z,100819.16
2023-05-16T02:41:35.322Z,100830.66
2023-05-16T02:44:02.952Z,100832.34
2023-05-16T02:46:36.426Z,100836.69
2023-05-16T02:49:06.049Z,100839.22
2023-05-16T02:51:33.684Z,100833.16
2023-05-16T02:54:01.464Z,100835.88
2023-05-16T02:56:29.128Z,100843.19
2023-05-16T02:58:56.790Z,100841.31
2023-05-16T03:01:24.517Z,100846.13
2023-05-16T03:03:52.400Z,100839.22
2023-05-16T03:06:21.526Z,100845.50
2023-05-16T03:08:49.348Z,100844.66
2023-05-16T03:11:20.406Z,100851.72
2023-05-16T03:13:48.263Z,100855.09
2023-05-16T03:16:16.417Z,100850.28
2023-05-16T03:18:44.491Z,100860.09
2023-05-16T03:21:12.405Z,100857.34
2023-05-16T03:23:41.816Z,100866.16
2023-05-16T03:26:09.836Z,100873.63
2023-05-16T03:28:38.013Z,100865.50
2023-05-16T03:31:06.011Z,100874.47
2023-05-16T03:33:34.032Z,100875.91
2023-05-16T03:36:01.996Z,100880.84
2023-05-16T03:38:30.147Z,100885.69
2023-05-16T03:40:59.211Z,100881.72
2023-05-16T03:43:27.014Z,100887.16
2023-05-16T03:45:54.829Z,100888.66
2023-05-16T03:48:23.021Z,100892.00
2023-05-16T03:50:51.343Z,100897.41
2023-05-16T03:53:19.292Z,100896.78
2023-05-16T03:55:48.771Z,100903.22
2023-05-16T03:58:18.229Z,100899.47
2023-05-16T04:00:46.851Z,100896.59
2023-05-16T04:03:14.990Z,100893.63
2023-05-16T04:05:42.701Z,100899.47
2023-05-16T04:08:10.392Z,100893.22
2023-05-16T04:10:38.000Z,100896.78
2023-05-16T04:13:05.687Z,100898.41
2023-05-16T04:15:34.912Z,100905.53
2023-05-16T04:18:02.784Z,100906.78
2023-05-16T04:20:32.781Z,100905.13
2023-05-16T04:23:00.739Z,100908.25
2023-05-16T04:25:28.676Z,100910.13
2023-05-16T04:27:57.229Z,100914.72
2023-05-16T04:30:24.972Z,100909.13
2023-05-16T04:32:54.144Z,100907.41
2023-05-16T04:35:22.814Z,100910.13
2023-05-16T04:37:50.660Z,100919.50
2023-05-16T04:40:18.494Z,100919.22
2023-05-16T04:42:46.312Z,100925.69
2023-05-16T04:45:14.339Z,100923.38
2023-05-16T04:47:42.273Z,100931.75
2023-05-16T04:50:12.019Z,100938.44
2023-05-16T04:52:39.618Z,100940.66
2023-05-16T04:55:08.354Z,100949.31
2023-05-16T04:57:35.970Z,100946.00
2023-05-16T05:00:06.907Z,100948.31
2023-05-16T05:02:34.928Z,100948.75
2023-05-16T05:05:03.118Z,100960.44
2023-05-16T05:07:32.359Z,100967.22
2023-05-16T05:10:00.066Z,100975.03
2023-05-16T05:12:28.442Z,100975.88
2023-05-16T05:14:56.094Z,100978.41
2023-05-16T05:17:23.949Z,100985.88
2023-05-16T05:19:51.628Z,100987.06
2023-05-16T05:22:19.220Z,100986.22
2023-05-16T05:24:48.175Z,100991.09
2023-05-16T05:27:15.868Z,100990.56
2023-05-16T05:29:43.512Z,100992.09
2023-05-16T05:32:11.434Z,100993.75
2023-05-16T05:34:39.095Z,100999.13
2023-05-16T05:37:06.709Z,101005.34
2023-05-16T05:39:34.562Z,101004.06
2023-05-16T05:42:04.316Z,101013.47
2023-05-16T05:44:32.237Z,101020.09
2023-05-16T05:47:00.091Z,101013.06
2023-05-16T05:49:28.443Z,101026.06
2023-05-16T05:51:56.186Z,101032.56
2023-05-16T05:54:24.545Z,101037.22
2023-05-16T05:56:52.251Z,101040.78
2023-05-16T05:59:21.337Z,101037.69
2023-05-16T06:01:52.792Z,101042.63
2023-05-16T06:04:20.940Z,101054.75
2023-05-16T06:06:49.266Z,101058.00
2023-05-16T06:09:16.880Z,101066.69
2023-05-16T06:11:45.805Z,101063.59
2023-05-16T06:14:15.099Z,101069.91
2023-05-16T06:16:44.360Z,101082.97
2023-05-16T06:19:15.956Z,101084.19
2023-05-16T06:21:44.156Z,101079.84
2023-05-16T06:24:12.406Z,101082.16
2023-05-16T06:26:40.368Z,101087.88
2023-05-16T06:29:07.973Z,101091.84
2023-05-16T06:31:35.725Z,101087.88
2023-05-16T06:34:04.892Z,101088.44
2023-05-16T06:36:32.588Z,101088.91
2023-05-16T06:39:00.304Z,101082.47
2023-05-16T06:41:27.894Z,101085.59
2023-05-16T06:43:55.636Z,101091.31
2023-05-16T06:46:23.384Z,101090.16
2023-05-16T06:48:51.189Z,101096.03
2023-05-16T06:51:20.280Z,101094.78
2023-05-16T06:53:48.057Z,101101.97
2023-05-16T06:56:16.005Z,101104.28
2023-05-16T06:58:43.751Z,101094.78
2023-05-16T07:01:11.665Z,101101.06
2023-05-16T07:03:39.807Z,101102.91
2023-05-16T07:06:07.891Z,101105.72
2023-05-16T07:08:37.136Z,101102.63
2023-05-16T07:11:04.981Z,101107.00
2023-05-16T07:13:33.764Z,101115.50
2023-05-16T07:16:07.422Z,101107.38
2023-05-16T07:18:35.531Z,101114.50
2023-05-16T07:21:03.175Z,101108.06
2023-05-16T07:23:30.949Z,101111.19
2023-05-16T07:26:00.329Z,101112.16
2023-05-16T07:28:28.020Z,101119.69
2023-05-16T07:30:58.581Z,101113.94
2023-05-16T07:33:32.097Z,101115.09
2023-05-16T07:36:12.233Z,101103.69
2023-05-16T07:38:44.582Z,101096.09
2023-05-16T07:41:13.684Z,101113.56
2023-05-16T07:43:41.476Z,101119.81
2023-05-16T07:46:09.309Z,101120.34
2023-05-16T07:48:36.948Z,101118.88
2023-05-16T07:51:04.957Z,101123.94
2023-05-16T07:53:32.630Z,101105.00
2023-05-16T07:56:00.402Z,101114.50
2023-05-16T07:58:41.538Z,101113.69
2023-05-16T08:01:09.933Z,101117.47
2023-05-16T08:03:38.188Z,101123.78
2023-05-16T08:06:06.563Z,101129.47
2023-05-16T08:08:34.431Z,101129.84
2023-05-16T08:11:02.109Z,101127.78
2023-05-16T08:13:31.829Z,101134.03
2023-05-16T08:15:59.797Z,101127.28
2023-05-16T08:18:27.684Z,101131.06
2023-05-16T08:20:57.790Z,101116.44
2023-05-16T08:23:25.812Z,101124.19
2023-05-16T08:25:54.654Z,101118.53
2023-05-16T08:28:22.376Z,101122.78
2023-05-16T08:30:51.497Z,101116.34
2023-05-16T08:33:31.330Z,101130.50
2023-05-16T08:36:00.990Z,101129.84
2023-05-16T08:38:29.132Z,101135.03
2023-05-16T08:40:57.029Z,101134.81
2023-05-16T08:43:24.743Z,101136.31
2023-05-16T08:45:55.380Z,101144.09
2023-05-16T08:48:25.459Z,101131.56
2023-05-16T08:50:53.389Z,101125.06
2023-05-16T08:53:25.520Z,101134.06
2023-05-16T08:55:54.793Z,101136.19
2023-05-16T08:58:22.913Z,101133.53
2023-05-16T09:00:50.696Z,101126.19
2023-05-16T09:03:23.666Z,101130.00
2023-05-16T09:05:52.696Z,101127.28
2023-05-16T09:08:20.590Z,101124.78
2023-05-16T09:10:48.288Z,101124.34
2023-05-16T09:13:16.264Z,101127.69
2023-05-16T09:15:45.557Z,101126.25
2023-05-16T09:18:14.860Z,101122.28
2023-05-16T09:20:49.981Z,101122.25
2023-05-16T09:23:25.082Z,101124.56
2023-05-16T09:25:54.930Z,101126.66
2023-05-16T09:28:23.168Z,101132.09
2023-05-16T09:30:50.902Z,101120.34
2023-05-16T09:33:18.665Z,101116.59
2023-05-16T09:35:48.653Z,101123.94
2023-05-16T09:38:17.623Z,101128.75
2023-05-16T09:40:45.982Z,101122.06
2023-05-16T09:43:16.972Z,101131.88
2023-05-16T09:45:48.564Z,101129.34
2023-05-16T09:48:18.008Z,101133.75
2023-05-16T09:50:53.974Z,101123.31
2023-05-16T09:53:28.845Z,101117.03
2023-05-16T09:56:04.066Z,101125.00
2023-05-16T09:58:32.726Z,101114.31
2023-05-16T10:01:00.654Z,101123.75
2023-05-16T10:03:29.429Z,101126.47
2023-05-16T10:06:01.218Z,101110.97
2023-05-16T10:08:29.026Z,101113.25
2023-05-16T10:10:57.480Z,101114.94
2023-05-16T10:13:30.169Z,101116.63
2023-05-16T10:16:00.396Z,101110.31
2023-05-16T10:18:31.118Z,101110.75
2023-05-16T10:21:11.771Z,101105.09
2023-05-16T10:23:43.005Z,101106.56
2023-05-16T10:26:14.121Z,101110.75
2023-05-16T10:28:42.568Z,101105.94
2023-05-16T10:31:11.635Z,101106.75
2023-05-16T10:33:40.983Z,101097.34
2023-05-16T10:36:11.860Z,101105.50
2023-05-16T10:38:40.195Z,101089.34
2023-05-16T10:41:10.158Z,101073.00
2023-05-16T10:43:37.830Z,101098.78
2023-05-16T10:46:07.772Z,101093.53
2023-05-16T10:48:37.715Z,101093.94
2023-05-16T10:51:37.205Z,101102.75
2023-05-16T10:54:10.885Z,101094.38
2023-05-16T10:56:39.260Z,101103.78
2023-05-16T10:59:24.054Z,101095.44
2023-05-16T11:01:54.385Z,101102.28
2023-05-16T11:04:22.095Z,101095.78
2023-05-16T11:06:56.566Z,101103.31
2023-05-16T11:09:27.890Z,101093.81
2023-05-16T11:12:03.851Z,101095.19
2023-05-16T11:14:42.416Z,101097.72
2023-05-16T11:17:13.288Z,101097.50
2023-05-16T11:19:43.892Z,101100.91
2023-05-16T11:22:18.010Z,101092.50
2023-05-16T11:24:54.088Z,101095.91
2023-05-16T11:27:24.459Z,101091.72
2023-05-16T11:29:52.983Z,101103.06
2023-05-16T11:32:22.969Z,101105.19
2023-05-16T11:34:52.211Z,101092.13
2023-05-16T11:37:23.059Z,101107.19
2023-05-16T11:39:51.278Z,101086.66
2023-05-16T11:42:19.535Z,101097.53
2023-05-16T11:44:47.399Z,101101.16
2023-05-16T11:47:15.662Z,101099.56
2023-05-16T11:49:43.600Z,101105.44
2023-05-16T11:52:11.443Z,101115.00
2023-05-16T11:54:42.371Z,101101.84
2023-05-16T11:57:10.381Z,101092.72
2023-05-16T11:59:38.450Z,101096.06
2023-05-16T12:02:06.896Z,101101.31
2023-05-16T12:04:34.953Z,101095.97
2023-05-16T12:07:05.692Z,101103.16
2023-05-16T12:09:33.694Z,101099.38
2023-05-16T12:12:06.847Z,101098.34
2023-05-16T12:14:34.880Z,101108.06
2023-05-16T12:17:04.553Z,101113.44
2023-05-16T12:19:32.857Z,101115.50
2023-05-16T12:22:00.686Z,101128.28
2023-05-16T12:24:32.355Z,101119.00
2023-05-16T12:27:00.081Z,101103.16
2023-05-16T12:29:29.080Z,101110.47
2023-05-16T12:31:56.960Z,101104.28
2023-05-16T12:34:24.989Z,101100.69
2023-05-16T12:36:54.460Z,101123.16
2023-05-16T12:39:24.539Z,101130.91
2023-05-16T12:41:55.571Z,101134.81
2023-05-16T12:44:25.152Z,101141.19
2023-05-16T12:46:55.174Z,101138.19
2023-05-16T12:49:23.450Z,101148.38
2023-05-16T12:51:52.488Z,101148.06
2023-05-16T12:54:20.638Z,101138.59
2023-05-16T12:56:48.338Z,101142.66
2023-05-16T12:59:16.635Z,101148.19
2023-05-16T13:01:46.442Z,101154.97
2023-05-16T13:04:19.157Z,101152.56
2023-05-16T13:06:57.265Z,101146.69
2023-05-16T13:09:29.942Z,101148.97
2023-05-16T13:11:59.599Z,101142.25
2023-05-16T13:14:27.923Z,101150.06
2023-05-16T13:16:55.566Z,101154.56
2023-05-16T13:19:25.750Z,101153.63
2023-05-16T13:21:56.867Z,101157.41
2023-05-16T13:24:25.475Z,101152.69
2023-05-16T13:26:53.538Z,101153.75
2023-05-16T13:29:21.274Z,101142.31
2023-05-16T13:31:49.043Z,101144.16
2023-05-16T13:34:16.982Z,101142.38
2023-05-16T13:36:53.720Z,101139.56
2023-05-16T13:39:22.286Z,101135.09
2023-05-16T13:41:50.257Z,101131.47
2023-05-16T13:44:18.161Z,101135.38
2023-05-16T13:46:46.022Z,101142.94
2023-05-16T13:49:13.939Z,101148.78
2023-05-16T13:51:41.872Z,101141.22
2023-05-16T13:54:11.056Z,101159.88
2023-05-16T13:56:39.308Z,101159.25
2023-05-16T13:59:07.771Z,101160.72
2023-05-16T14:01:37.450Z,101163.19
2023-05-16T14:04:06.043Z,101162.56
2023-05-16T14:06:34.137Z,101167.75
2023-05-16T14:09:02.124Z,101163.44
2023-05-16T14:11:31.383Z,101177.97
2023-05-16T14:13:59.480Z,101179.56
2023-05-16T14:16:27.563Z,101186.88
2023-05-16T14:18:55.615Z,101190.31
2023-05-16T14:21:23.647Z,101188.63
2023-05-16T14:23:51.412Z,101193.38
2023-05-16T14:26:22.795Z,101205.28
2023-05-16T14:28:52.081Z,101207.00
2023-05-16T14:31:19.922Z,101208.00
2023-05-16T14:33:48.083Z,101202.44
2023-05-16T14:36:16.205Z,101208.94
2023-05-16T14:38:44.174Z,101210.97
2023-05-16T14:41:12.012Z,101212.63
2023-05-16T14:43:39.699Z,101218.97
2023-05-16T14:46:09.457Z,101203.88
2023-05-16T14:48:37.342Z,101218.63
2023-05-16T14:51:05.334Z,101206.34
2023-05-16T14:53:33.415Z,101207.81
2023-05-16T14:56:02.784Z,101203.16
2023-05-16T14:58:30.752Z,101202.31
2023-05-16T15:00:59.018Z,101193.97
2023-05-16T15:03:28.354Z,101206.22
2023-05-16T15:05:56.279Z,101216.25
2023-05-16T15:08:24.663Z,101207.81
2023-05-16T15:10:52.734Z,101209.63
2023-05-16T15:13:20.396Z,101214.00
2023-05-16T15:15:48.281Z,101215.16
2023-05-16T15:18:16.202Z,101214.44
2023-05-16T15:20:45.289Z,101220.47
2023-05-16T15:23:13.249Z,101219.41
2023-05-16T15:25:40.912Z,101226.56
2023-05-16T15:28:08.793Z,101224.31
2023-05-16T15:30:36.671Z,101211.81
2023-05-16T15:33:04.715Z,101232.94
2023-05-16T15:35:32.763Z,101231.09
2023-05-16T15:38:02.192Z,101228.31
2023-05-16T15:40:29.892Z,101243.97
2023-05-16T15:42:57.658Z,101241.22
2023-05-16T15:45:25.963Z,101246.94
2023-05-16T15:47:54.064Z,101249.44
2023-05-16T15:50:22.357Z,101245.22
2023-05-16T15:52:51.224Z,101247.38
2023-05-16T15:55:20.546Z,101259.97
2023-05-16T15:57:48.522Z,101264.38
2023-05-16T16:00:17.754Z,101267.22
2023-05-16T16:02:46.058Z,101263.50
2023-05-16T16:05:15.038Z,101269.41
2023-05-16T16:07:43.392Z,101274.84
2023-05-16T16:10:13.925Z,101265.63
2023-05-16T16:12:43.211Z,101257.78
2023-05-16T16:15:11.884Z,101260.78
2023-05-16T16:17:40.092Z,101261.97
2023-05-16T16:20:08.896Z,101249.84
2023-05-16T16:22:36.785Z,101266.25
2023-05-16T16:25:05.977Z,101254.09
2023-05-16T16:27:33.955Z,101254.31
2023-05-16T16:30:03.153Z,101255.16
2023-05-16T16:32:31.071Z,101256.47
2023-05-16T16:34:58.763Z,101261.69
2023-05-16T16:37:26.765Z,101261.28
2023-05-16T16:39:54.496Z,101265.66
2023-05-16T16:42:22.685Z,101265.66
2023-05-16T16:44:51.402Z,101264.63
2023-05-16T16:47:20.637Z,101261.88
2023-05-16T16:49:48.670Z,101269.25
2023-05-16T16:52:16.425Z,101268.19
2023-05-16T16:54:44.462Z,101265.06
2023-05-16T16:57:12.344Z,101258.34
2023-05-16T16:59:41.238Z,101266.53
2023-05-16T17:02:09.078Z,101268.22
2023-05-16T17:04:38.371Z,101258.38
2023-05-16T17:07:07.036Z,101257.97
2023-05-16T17:09:35.879Z,101260.06
2023-05-16T17:12:08.621Z,101261.97
2023-05-16T17:14:36.641Z,101256.94
2023-05-16T17:17:04.676Z,101263.22
2023-05-16T17:19:32.985Z,101263.63
2023-05-16T17:22:02.242Z,101264.69
2023-05-16T17:24:30.044Z,101270.34
2023-05-16T17:26:59.002Z,101272.44
2023-05-16T17:29:27.267Z,101279.59
2023-05-16T17:31:55.391Z,101277.91
2023-05-16T17:34:23.659Z,101275.19
2023-05-16T17:36:51.374Z,101282.91
2023-05-16T17:39:20.984Z,101288.78
2023-05-16T17:41:48.979Z,101278.94
2023-05-16T17:44:17.001Z,101289.22
2023-05-16T17:46:44.799Z,101293.59
2023-05-16T17:49:13.209Z,101292.78
2023-05-16T17:51:49.148Z,101287.09
2023-05-16T17:54:18.334Z,101289.84
2023-05-16T17:56:48.923Z,101291.72
2023-05-16T17:59:17.646Z,101291.94
2023-05-16T18:01:45.413Z,101298.00
2023-05-16T18:04:13.666Z,101302.41
2023-05-16T18:06:42.383Z,101302.63
2023-05-16T18:09:10.797Z,101307.22
2023-05-16T18:11:41.030Z,101306.81
2023-05-16T18:14:10.298Z,101310.97
2023-05-16T18:16:37.995Z,101308.47
2023-05-16T18:19:08.734Z,101318.28
2023-05-16T18:21:38.477Z,101316.38
2023-05-16T18:24:08.346Z,101328.13
2023-05-16T18:26:37.490Z,101326.41
2023-05-16T18:29:05.442Z,101328.06
2023-05-16T18:31:34.648Z,101326.41
2023-05-16T18:34:02.841Z,101336.03
2023-05-16T18:36:30.579Z,101339.38
2023-05-16T18:38:58.384Z,101343.56
2023-05-16T18:41:26.932Z,101348.16
2023-05-16T18:43:54.833Z,101346.91
2023-05-16T18:46:22.822Z,101350.91
2023-05-16T18:48:52.202Z,101354.66
2023-05-16T18:51:20.040Z,101354.44
2023-05-16T18:53:47.925Z,101356.53
2023-05-16T18:56:16.127Z,101366.81
2023-05-16T18:58:44.048Z,101370.53
2023-05-16T19:01:11.704Z,101364.41
2023-05-16T19:03:39.748Z,101375.44
2023-05-16T19:06:09.457Z,101387.03
2023-05-16T19:08:47.641Z,101387.66
2023-05-16T19:11:17.943Z,101390.38
2023-05-16T19:13:45.968Z,101396.06
2023-05-16T19:16:14.060Z,101394.41
2023-05-16T19:18:42.154Z,101397.50
2023-05-16T19:21:13.724Z,101397.59
2023-05-16T19:23:41.606Z,101397.41
2023-05-16T19:26:09.782Z,101404.78
2023-05-16T19:28:40.666Z,101404.13
2023-05-16T19:31:08.575Z,101408.41
2023-05-16T19:33:36.279Z,101402.94
2023-05-16T19:36:06.414Z,101405.72
2023-05-16T19:38:35.494Z,101408.06
2023-05-16T19:41:03.491Z,101409.31
2023-05-16T19:43:31.510Z,101409.31
2023-05-16T19:45:59.563Z,101411.19
2023-05-16T19:48:28.094Z,101413.69
2023-05-16T19:50:55.985Z,101408.81
2023-05-16T19:53:23.927Z,101414.28
2023-05-16T19:55:53.373Z,101413.44
2023-05-16T19:58:21.370Z,101408.56
2023-05-16T20:00:50.802Z,101409.81
2023-05-16T20:03:18.872Z,101411.09
2023-05-16T20:05:46.615Z,101414.28
2023-05-16T20:08:14.408Z,101411.34
2023-05-16T20:10:42.189Z,101417.25
2023-05-16T20:13:11.330Z,101413.56
2023-05-16T20:15:39.079Z,101414.84
2023-05-16T20:18:07.685Z,101420.16
2023-05-16T20:20:35.910Z,101411.94
2023-05-16T20:23:03.809Z,101420.72
2023-05-16T20:25:32.032Z,101421.28
2023-05-16T20:27:59.751Z,101422.25
2023-05-16T20:30:30.271Z,101417.72
2023-05-16T20:32:58.344Z,101425.13
2023-05-16T20:35:26.590Z,101417.66
2023-05-16T20:37:54.525Z,101414.63
2023-05-16T20:40:23.217Z,101419.91
2023-05-16T20:42:51.698Z,101409.69
2023-05-16T20:45:19.877Z,101408.56
2023-05-16T20:47:51.007Z,101415.91
2023-05-16T20:50:19.053Z,101409.25
2023-05-16T20:52:47.063Z,101415.44
2023-05-16T20:55:14.925Z,101416.28
2023-05-16T20:57:43.893Z,101414.81
2023-05-16T21:00:13.038Z,101411.84
2023-05-16T21:02:41.322Z,101417.44
2023-05-16T21:05:24.015Z,101416.28
2023-05-16T21:07:59.174Z,101408.06
2023-05-16T21:10:27.541Z,101420.78
2023-05-16T21:12:56.668Z,101430.41
2023-05-16T21:15:25.315Z,101421.38
2023-05-16T21:17:53.074Z,101420.63
2023-05-16T21:20:22.197Z,101420.38
2023-05-16T21:22:50.329Z,101425.03
2023-05-16T21:25:18.124Z,101424.44
2023-05-16T21:27:45.883Z,101421.44
2023-05-16T21:30:15.025Z,101417.94
2023-05-16T21:32:43.236Z,101420.06
2023-05-16T21:35:11.402Z,101416.84
2023-05-16T21:37:40.654Z,101424.88
2023-05-16T21:40:10.137Z,101422.25
2023-05-16T21:42:37.822Z,101427.44
2023-05-16T21:45:12.361Z,101429.13
2023-05-16T21:47:40.547Z,101430.59
2023-05-16T21:50:09.518Z,101429.31
2023-05-16T21:52:37.697Z,101439.97
2023-05-16T21:55:08.319Z,101431.88
2023-05-16T21:57:36.521Z,101434.97
2023-05-16T22:00:06.804Z,101431.09
2023-05-16T22:02:34.787Z,101429.44
2023-05-16T22:05:03.108Z,101439.84
2023-05-16T22:07:31.700Z,101435.91
2023-05-16T22:10:00.108Z,101439.75
2023-05-16T22:12:29.275Z,101441.44
2023-05-16T22:14:57.417Z,101443.09
2023-05-16T22:17:25.304Z,101449.22
2023-05-16T22:19:53.041Z,101440.19
2023-05-16T22:22:21.081Z,101445.47
2023-05-16T22:24:48.886Z,101445.25
2023-05-16T22:27:17.040Z,101443.84
2023-05-16T22:29:46.293Z,101445.34
2023-05-16T22:32:14.716Z,101448.34
2023-05-16T22:34:42.652Z,101451.38
2023-05-16T22:37:11.166Z,101452.41
2023-05-16T22:39:39.019Z,101453.53
2023-05-16T22:42:07.402Z,101447.38
2023-05-16T22:44:35.104Z,101443.19
2023-05-16T22:47:04.128Z,101447.56
2023-05-16T22:49:31.907Z,101442.78
2023-05-16T22:51:59.642Z,101443.25
2023-05-16T22:54:27.344Z,101446.44
2023-05-16T22:56:55.196Z,101444.75
2023-05-16T22:59:22.889Z,101451.97
2023-05-16T23:01:50.785Z,101444.09
2023-05-16T23:04:19.902Z,101453.25
2023-05-16T23:06:47.743Z,101449.06
2023-05-16T23:09:15.489Z,101448.38
2023-05-16T23:11:43.257Z,101452.06
2023-05-16T23:14:11.136Z,101452.25
2023-05-16T23:16:39.090Z,101454.19
2023-05-16T23:19:09.305Z,101449.53
2023-05-16T23:21:39.870Z,101451.47
2023-05-16T23:24:08.276Z,101450.47
2023-05-16T23:26:36.250Z,101459.34
2023-05-16T23:29:04.107Z,101461.66
2023-05-16T23:31:31.992Z,101466.34
2023-05-16T23:33:59.756Z,101468.13
2023-05-16T23:36:27.596Z,101460.16
2023-05-16T23:38:56.646Z,101468.97
2023-05-16T23:41:24.427Z,101467.28
2023-05-16T23:43:52.147Z,101468.59
2023-05-16T23:46:19.888Z,101472.03
2023-05-16T23:48:48.061Z,101470.25
2023-05-16T23:51:15.878Z,101465.66
2023-05-16T23:53:45.044Z,101470.50
2023-05-16T23:56:14.075Z,101468.75
2023-05-16T23:58:41.916Z,101466.16
